createdAt,value
2023-03-12T00:01:19.816Z,99958.75
2023-03-12T00:04:08.831Z,99954.03
2023-03-12T00:06:57.558Z,99960.81
2023-03-12T00:09:46.619Z,99956.31
2023-03-12T00:12:35.560Z,99955.47
2023-03-12T00:15:26.154Z,99958.56
2023-03-12T00:18:17.182Z,99968.81
2023-03-12T00:21:06.893Z,99976.41
2023-03-12T00:23:55.908Z,99968.41
2023-03-12T00:26:44.842Z,99954.25
2023-03-12T00:29:33.509Z,99972.69
2023-03-12T00:32:23.675Z,99974.97
2023-03-12T00:35:12.532Z,99966.97
2023-03-12T00:38:01.185Z,99964.31
2023-03-12T00:40:49.846Z,99972.69
2023-03-12T00:43:38.610Z,99965.72
2023-03-12T00:46:27.788Z,99958.75
2023-03-12T00:52:07.323Z,99978.00
2023-03-12T00:54:58.796Z,99974.72
2023-03-12T00:57:47.604Z,99977.56
2023-03-12T01:00:36.465Z,99964.25
2023-03-12T01:03:25.268Z,99965.06
2023-03-12T01:06:15.350Z,99966.53
2023-03-12T01:09:05.291Z,99972.69
2023-03-12T01:11:54.074Z,99970.00
2023-03-12T01:14:42.874Z,99967.34
2023-03-12T01:17:31.554Z,99972.47
2023-03-12T01:20:20.361Z,99971.88
2023-03-12T01:23:10.712Z,99967.34
2023-03-12T01:25:59.473Z,99968.59
2023-03-12T01:28:48.289Z,99974.53
2023-03-12T01:31:37.173Z,99967.16
2023-03-12T01:34:25.877Z,99971.44
2023-03-12T01:37:14.562Z,99968.97
2023-03-12T01:40:05.625Z,99978.38
2023-03-12T01:42:57.740Z,99978.22
2023-03-12T01:46:02.947Z,99978.19
2023-03-12T01:48:55.454Z,99982.69
2023-03-12T01:51:46.796Z,99975.94
2023-03-12T01:54:37.897Z,99984.56
2023-03-12T01:57:32.338Z,99983.31
2023-03-12T02:00:24.119Z,99980.03
2023-03-12T02:03:13.777Z,99986.41
2023-03-12T02:06:06.795Z,99974.28
2023-03-12T02:08:55.867Z,99980.03
2023-03-12T02:11:44.551Z,99980.03
2023-03-12T02:14:35.033Z,99967.72
2023-03-12T02:17:23.781Z,99975.94
2023-03-12T02:20:17.369Z,99973.66
2023-03-12T02:23:09.968Z,99967.91
2023-03-12T02:26:00.477Z,99973.06
2023-03-12T02:28:49.914Z,99973.84
2023-03-12T02:31:42.925Z,99979.59
2023-03-12T02:34:31.806Z,99982.50
2023-03-12T02:37:21.253Z,99978.19
2023-03-12T02:40:15.717Z,99985.53
2023-03-12T02:43:08.173Z,99981.81
2023-03-12T02:45:57.695Z,99993.94
2023-03-12T02:48:46.309Z,99993.13
2023-03-12T02:51:35.108Z,100001.31
2023-03-12T02:54:24.404Z,100002.16
2023-03-12T02:57:13.100Z,99994.34
2023-03-12T03:00:04.316Z,100000.28
2023-03-12T03:02:53.027Z,100002.75
2023-03-12T03:05:41.704Z,100008.47
2023-03-12T03:08:30.382Z,100013.59
2023-03-12T03:11:19.150Z,100007.50
2023-03-12T03:14:07.996Z,100009.13
2023-03-12T03:16:58.021Z,100015.25
2023-03-12T03:19:46.746Z,100000.72
2023-03-12T03:22:35.398Z,100018.16
2023-03-12T03:25:24.144Z,100017.13
2023-03-12T03:28:12.779Z,100021.84
2023-03-12T03:31:02.231Z,100030.44
2023-03-12T03:33:52.634Z,100021.63
2023-03-12T03:36:41.334Z,100033.31
2023-03-12T03:39:30.438Z,100042.38
2023-03-12T03:42:19.160Z,100032.50
2023-03-12T03:45:09.720Z,100037.78
2023-03-12T03:47:58.433Z,100042.94
2023-03-12T03:50:48.698Z,100039.69
2023-03-12T03:53:37.731Z,100037.00
2023-03-12T03:56:26.478Z,100044.38
2023-03-12T03:59:15.131Z,100047.44
2023-03-12T04:02:03.795Z,100044.38
2023-03-12T04:04:52.881Z,100039.06
2023-03-12T04:07:43.171Z,100050.53
2023-03-12T04:10:32.306Z,100054.59
2023-03-12T04:13:21.169Z,100045.78
2023-03-12T04:16:10.092Z,100056.28
2023-03-12T04:18:58.837Z,100051.97
2023-03-12T04:21:47.436Z,100056.88
2023-03-12T04:24:37.861Z,100061.75
2023-03-12T04:27:26.849Z,100055.81
2023-03-12T04:30:16.234Z,100050.91
2023-03-12T04:33:05.126Z,100057.06
2023-03-12T04:35:54.420Z,100050.72
2023-03-12T04:38:43.125Z,100054.97
2023-03-12T04:41:33.249Z,100056.22
2023-03-12T04:44:22.016Z,100051.31
2023-03-12T04:47:10.792Z,100052.94
2023-03-12T04:49:59.466Z,100061.16
2023-03-12T04:52:48.147Z,100059.50
2023-03-12T04:55:36.894Z,100073.84
2023-03-12T04:58:27.231Z,100065.44
2023-03-12T05:01:22.924Z,100071.63
2023-03-12T05:04:11.896Z,100077.13
2023-03-12T05:07:00.686Z,100068.53
2023-03-12T05:09:49.623Z,100077.53
2023-03-12T05:12:38.486Z,100081.63
2023-03-12T05:15:28.770Z,100083.25
2023-03-12T05:18:17.699Z,100076.66
2023-03-12T05:21:09.174Z,100077.06
2023-03-12T05:23:57.836Z,100078.72
2023-03-12T05:26:46.574Z,100080.34
2023-03-12T05:29:35.815Z,100081.38
2023-03-12T05:32:25.855Z,100077.69
2023-03-12T05:35:14.901Z,100074.63
2023-03-12T05:38:03.593Z,100075.03
2023-03-12T05:40:56.079Z,100082.94
2023-03-12T05:43:44.683Z,100086.09
2023-03-12T05:46:33.329Z,100087.25
2023-03-12T05:49:23.819Z,100087.06
2023-03-12T05:52:13.456Z,100084.81
2023-03-12T05:55:02.460Z,100086.44
2023-03-12T05:57:52.299Z,100089.72
2023-03-12T06:00:42.124Z,100087.25
2023-03-12T06:03:30.752Z,100091.66
2023-03-12T06:06:21.588Z,100083.97
2023-03-12T06:09:10.385Z,100089.38
2023-03-12T06:11:59.023Z,100096.09
2023-03-12T06:14:47.978Z,100088.16
2023-03-12T06:17:36.929Z,100088.63
2023-03-12T06:20:27.975Z,100082.88
2023-03-12T06:23:20.354Z,100081.44
2023-03-12T06:26:10.688Z,100094.75
2023-03-12T06:28:59.433Z,100089.44
2023-03-12T06:31:48.401Z,100088.63
2023-03-12T06:34:37.360Z,100091.91
2023-03-12T06:37:26.105Z,100100.13
2023-03-12T06:40:16.397Z,100091.94
2023-03-12T06:43:05.062Z,100091.53
2023-03-12T06:45:53.984Z,100092.34
2023-03-12T06:48:42.975Z,100087.81
2023-03-12T06:51:32.805Z,100088.25
2023-03-12T06:54:21.583Z,100096.53
2023-03-12T06:57:11.919Z,100092.78
2023-03-12T07:00:00.721Z,100099.38
2023-03-12T07:02:49.559Z,100088.28
2023-03-12T07:05:38.920Z,100093.41
2023-03-12T07:08:31.014Z,100090.75
2023-03-12T07:11:20.589Z,100086.03
2023-03-12T07:14:10.646Z,100091.78
2023-03-12T07:17:01.930Z,100079.69
2023-03-12T07:19:50.717Z,100083.78
2023-03-12T07:22:39.844Z,100082.94
2023-03-12T07:25:28.610Z,100085.06
2023-03-12T07:28:17.619Z,100085.06
2023-03-12T07:31:07.873Z,100081.38
2023-03-12T07:33:56.670Z,100085.06
2023-03-12T07:36:45.667Z,100083.47
2023-03-12T07:39:34.379Z,100086.22
2023-03-12T07:42:23.190Z,100082.19
2023-03-12T07:45:12.519Z,100081.50
2023-03-12T07:48:06.833Z,100084.34
2023-03-12T07:51:02.147Z,100087.69
2023-03-12T07:53:50.856Z,100090.53
2023-03-12T07:56:39.933Z,100090.16
2023-03-12T07:59:28.943Z,100092.84
2023-03-12T08:02:17.893Z,100095.53
2023-03-12T08:05:09.251Z,100094.94
2023-03-12T08:07:57.999Z,100101.06
2023-03-12T08:10:46.747Z,100099.84
2023-03-12T08:13:35.976Z,100100.88
2023-03-12T08:16:24.803Z,100093.06
2023-03-12T08:19:14.010Z,100092.25
2023-03-12T08:22:04.311Z,100093.47
2023-03-12T08:24:53.149Z,100104.19
2023-03-12T08:27:41.889Z,100100.88
2023-03-12T08:30:30.822Z,100105.81
2023-03-12T08:33:19.888Z,100102.72
2023-03-12T08:36:09.523Z,100113.19
2023-03-12T08:39:02.353Z,100101.28
2023-03-12T08:41:51.698Z,100106.63
2023-03-12T08:44:40.416Z,100101.69
2023-03-12T08:47:30.796Z,100109.06
2023-03-12T08:50:22.304Z,100098.66
2023-03-12T08:53:11.011Z,100103.75
2023-03-12T08:56:01.893Z,100103.34
2023-03-12T08:58:50.644Z,100099.22
2023-03-12T09:01:41.686Z,100094.06
2023-03-12T09:04:32.083Z,100090.16
2023-03-12T09:07:22.306Z,100088.53
2023-03-12T09:10:11.958Z,100086.06
2023-03-12T09:13:04.880Z,100087.94
2023-03-12T09:15:53.782Z,100088.53
2023-03-12T09:18:42.582Z,100091.41
2023-03-12T09:21:31.449Z,100086.06
2023-03-12T09:24:20.133Z,100083.59
2023-03-12T09:27:09.075Z,100082.53
2023-03-12T09:30:00.953Z,100071.69
2023-03-12T09:32:50.206Z,100071.28
2023-03-12T09:35:39.331Z,100077.47
2023-03-12T09:38:28.662Z,100064.31
2023-03-12T09:41:20.560Z,100069.63
2023-03-12T09:44:13.975Z,100067.56
2023-03-12T09:47:06.759Z,100061.00
2023-03-12T09:49:58.195Z,100062.66
2023-03-12T09:52:51.961Z,100065.91
2023-03-12T09:55:41.783Z,100062.22
2023-03-12T09:58:36.049Z,100064.69
2023-03-12T10:01:37.808Z,100060.59
2023-03-12T10:04:52.363Z,100047.47
2023-03-12T10:07:49.366Z,100047.47
2023-03-12T10:10:52.769Z,100047.50
2023-03-12T10:14:01.313Z,100043.34
2023-03-12T10:16:56.388Z,100041.31
2023-03-12T10:19:57.772Z,100034.34
2023-03-12T10:22:52.586Z,100044.09
2023-03-12T10:25:44.544Z,100038.03
2023-03-12T10:28:37.835Z,100031.06
2023-03-12T10:31:30.703Z,100020.81
2023-03-12T10:34:22.543Z,100022.03
2023-03-12T10:37:18.090Z,100009.31
2023-03-12T10:40:09.292Z,100019.97
2023-03-12T10:42:58.785Z,100022.03
2023-03-12T10:45:52.214Z,100008.50
2023-03-12T10:48:40.986Z,99999.47
2023-03-12T10:51:30.017Z,100001.50
2023-03-12T10:54:25.262Z,100012.56
2023-03-12T10:57:15.905Z,100003.34
2023-03-12T11:00:12.312Z,100004.38
2023-03-12T11:03:03.521Z,99999.25
2023-03-12T11:05:54.258Z,99998.22
2023-03-12T11:08:43.533Z,99994.94
2023-03-12T11:11:36.365Z,100001.91
2023-03-12T11:14:28.038Z,99989.59
2023-03-12T11:17:22.759Z,99982.63
2023-03-12T11:20:25.635Z,99984.50
2023-03-12T11:23:16.294Z,99974.44
2023-03-12T11:26:07.397Z,99972.78
2023-03-12T11:29:03.099Z,99975.25
2023-03-12T11:31:59.493Z,99968.25
2023-03-12T11:34:49.673Z,99964.19
2023-03-12T11:37:44.399Z,99962.50
2023-03-12T11:40:51.352Z,99962.50
2023-03-12T11:43:52.073Z,99948.16
2023-03-12T11:46:48.549Z,99942.00
2023-03-12T11:49:49.235Z,99934.44
2023-03-12T11:52:52.474Z,99925.16
2023-03-12T11:55:50.797Z,99934.00
2023-03-12T11:59:14.757Z,99923.34
2023-03-12T12:02:15.320Z,99904.66
2023-03-12T12:05:20.503Z,99901.41
2023-03-12T12:08:29.613Z,99886.19
2023-03-12T12:11:22.957Z,99881.69
2023-03-12T12:14:19.008Z,99879.44
2023-03-12T12:17:19.597Z,99875.53
2023-03-12T12:20:23.133Z,99868.75
2023-03-12T12:23:20.320Z,99860.34
2023-03-12T12:26:12.627Z,99848.63
2023-03-12T12:29:21.565Z,99849.22
2023-03-12T12:32:15.407Z,99856.63
2023-03-12T12:35:17.908Z,99852.94
2023-03-12T12:38:11.984Z,99839.19
2023-03-12T12:41:04.086Z,99827.50
2023-03-12T12:43:54.877Z,99821.38
2023-03-12T12:46:45.283Z,99817.69
2023-03-12T12:49:41.301Z,99814.00
2023-03-12T12:52:30.502Z,99821.38
2023-03-12T12:55:22.028Z,99820.16
2023-03-12T12:58:16.502Z,99814.19
2023-03-12T13:01:05.492Z,99814.59
2023-03-12T13:03:59.692Z,99815.59
2023-03-12T13:06:58.265Z,99811.72
2023-03-12T13:09:50.729Z,99802.47
2023-03-12T13:12:48.550Z,99804.31
2023-03-12T13:15:40.830Z,99804.94
2023-03-12T13:18:31.407Z,99805.75
2023-03-12T13:21:24.950Z,99805.34
2023-03-12T13:24:21.509Z,99805.53
2023-03-12T13:27:15.743Z,99802.88
2023-03-12T13:30:37.756Z,99802.47
2023-03-12T13:33:41.358Z,99796.75
2023-03-12T13:36:30.756Z,99793.88
2023-03-12T13:39:31.925Z,99786.91
2023-03-12T13:42:39.403Z,99796.31
2023-03-12T13:45:31.835Z,99800.84
2023-03-12T13:48:21.569Z,99792.06
2023-03-12T13:51:14.294Z,99798.00
2023-03-12T13:54:04.578Z,99791.88
2023-03-12T13:57:00.709Z,99793.72
2023-03-12T13:59:51.393Z,99792.28
2023-03-12T14:02:44.798Z,99800.69
2023-03-12T14:05:34.893Z,99800.84
2023-03-12T14:08:41.147Z,99800.06
2023-03-12T14:11:46.657Z,99791.03
2023-03-12T14:15:11.972Z,99797.59
2023-03-12T14:18:02.933Z,99791.84
2023-03-12T14:20:55.801Z,99779.53
2023-03-12T14:23:48.623Z,99794.75
2023-03-12T14:26:38.118Z,99792.28
2023-03-12T14:29:28.967Z,99798.00
2023-03-12T14:32:21.913Z,99770.94
2023-03-12T14:35:18.837Z,99760.44
2023-03-12T14:38:09.212Z,99764.78
2023-03-12T14:41:02.481Z,99771.97
2023-03-12T14:43:53.959Z,99777.09
2023-03-12T14:46:57.943Z,99780.78
2023-03-12T14:49:48.833Z,99774.19
2023-03-12T14:52:37.650Z,99762.72
2023-03-12T14:55:27.995Z,99762.91
2023-03-12T14:58:20.003Z,99766.41
2023-03-12T15:01:09.327Z,99766.81
2023-03-12T15:04:01.642Z,99769.25
2023-03-12T15:06:53.154Z,99778.47
2023-03-12T15:09:44.437Z,99761.91
2023-03-12T15:12:35.980Z,99773.59
2023-03-12T15:15:39.147Z,99763.31
2023-03-12T15:18:33.979Z,99754.47
2023-03-12T15:21:26.620Z,99758.13
2023-03-12T15:24:18.391Z,99756.66
2023-03-12T15:27:21.611Z,99741.38
2023-03-12T15:30:24.688Z,99740.13
2023-03-12T15:33:31.156Z,99725.75
2023-03-12T15:36:30.006Z,99706.88
2023-03-12T15:39:29.915Z,99710.16
2023-03-12T15:42:23.702Z,99703.19
2023-03-12T15:45:20.680Z,99701.13
2023-03-12T15:48:19.061Z,99686.97
2023-03-12T15:51:14.663Z,99689.69
2023-03-12T15:54:05.987Z,99689.25
2023-03-12T15:56:56.566Z,99684.34
2023-03-12T15:59:45.469Z,99678.59
2023-03-12T16:02:44.675Z,99678.56
2023-03-12T16:05:40.133Z,99691.69
2023-03-12T16:08:32.522Z,99690.06
2023-03-12T16:11:22.902Z,99682.66
2023-03-12T16:14:18.335Z,99669.09
2023-03-12T16:17:08.108Z,99679.38
2023-03-12T16:19:57.333Z,99670.31
2023-03-12T16:22:46.621Z,99670.78
2023-03-12T16:25:35.669Z,99653.75
2023-03-12T16:28:25.828Z,99671.16
2023-03-12T16:31:17.351Z,99669.41
2023-03-12T16:34:06.051Z,99672.34
2023-03-12T16:36:54.917Z,99662.50
2023-03-12T16:39:46.481Z,99680.16
2023-03-12T16:42:35.138Z,99672.59
2023-03-12T16:45:27.769Z,99669.72
2023-03-12T16:48:20.310Z,99665.38
2023-03-12T16:51:15.453Z,99665.78
2023-03-12T16:54:10.838Z,99676.06
2023-03-12T16:57:00.470Z,99664.59
2023-03-12T16:59:49.140Z,99659.69
2023-03-12T17:02:38.201Z,99658.47
2023-03-12T17:05:29.674Z,99662.97
2023-03-12T17:08:18.362Z,99663.78
2023-03-12T17:11:17.806Z,99661.41
2023-03-12T17:14:17.295Z,99655.66
2023-03-12T17:17:06.018Z,99646.22
2023-03-12T17:19:55.625Z,99658.50
2023-03-12T17:22:46.116Z,99667.16
2023-03-12T17:25:36.748Z,99671.47
2023-03-12T17:28:25.503Z,99676.13
2023-03-12T17:31:14.589Z,99675.13
2023-03-12T17:34:04.005Z,99690.44
2023-03-12T17:36:52.736Z,99695.78
2023-03-12T17:39:42.842Z,99692.78
2023-03-12T17:42:31.963Z,99678.16
2023-03-12T17:45:20.802Z,99669.50
2023-03-12T17:48:09.643Z,99675.66
2023-03-12T17:50:58.676Z,99667.91
2023-03-12T17:54:05.191Z,99668.47
2023-03-12T17:56:55.439Z,99683.44
2023-03-12T17:59:44.052Z,99688.81
2023-03-12T18:02:32.718Z,99685.91
2023-03-12T18:05:21.382Z,99683.19
2023-03-12T18:08:10.130Z,99673.06
2023-03-12T18:10:58.937Z,99674.50
2023-03-12T18:13:50.161Z,99672.00
2023-03-12T18:16:39.220Z,99680.31
2023-03-12T18:19:29.300Z,99674.56
2023-03-12T18:22:19.697Z,99681.28
2023-03-12T18:25:09.742Z,99671.59
2023-03-12T18:27:58.483Z,99682.88
2023-03-12T18:30:49.066Z,99684.75
2023-03-12T18:33:41.852Z,99681.00
2023-03-12T18:36:30.608Z,99691.69
2023-03-12T18:39:19.429Z,99690.63
2023-03-12T18:42:08.289Z,99689.50
2023-03-12T18:44:56.924Z,99681.31
2023-03-12T18:47:50.380Z,99683.75
2023-03-12T18:50:39.938Z,99670.97
2023-03-12T18:53:30.453Z,99668.06
2023-03-12T18:56:19.724Z,99678.00
2023-03-12T18:59:09.699Z,99678.00
2023-03-12T19:01:59.015Z,99687.00
2023-03-12T19:04:50.200Z,99685.38
2023-03-12T19:07:42.073Z,99689.09
2023-03-12T19:10:30.907Z,99695.22
2023-03-12T19:13:19.508Z,99690.28
2023-03-12T19:16:10.359Z,99689.81
2023-03-12T19:19:00.115Z,99691.03
2023-03-12T19:21:50.348Z,99694.38
2023-03-12T19:24:39.052Z,99693.16
2023-03-12T19:27:29.477Z,99684.97
2023-03-12T19:30:18.544Z,99687.34
2023-03-12T19:33:07.298Z,99686.06
2023-03-12T19:35:56.364Z,99683.09
2023-03-12T19:38:46.373Z,99674.69
2023-03-12T19:41:36.846Z,99686.56
2023-03-12T19:44:25.597Z,99685.69
2023-03-12T19:47:18.170Z,99689.00
2023-03-12T19:50:08.002Z,99677.41
2023-03-12T19:52:56.620Z,99686.13
2023-03-12T19:55:49.462Z,99696.66
2023-03-12T19:58:38.213Z,99702.19
2023-03-12T20:01:26.882Z,99702.34
2023-03-12T20:04:15.536Z,99692.91
2023-03-12T20:07:04.106Z,99700.81
2023-03-12T20:09:52.806Z,99709.63
2023-03-12T20:12:43.312Z,99711.78
2023-03-12T20:15:32.297Z,99708.13
2023-03-12T20:18:22.070Z,99703.28
2023-03-12T20:21:11.181Z,99705.34
2023-03-12T20:24:02.231Z,99707.53
2023-03-12T20:26:50.866Z,99708.03
2023-03-12T20:29:43.448Z,99709.91
2023-03-12T20:32:32.311Z,99714.13
2023-03-12T20:35:25.733Z,99704.19
2023-03-12T20:38:15.778Z,99691.81
2023-03-12T20:41:05.452Z,99693.84
2023-03-12T20:43:57.353Z,99702.09
2023-03-12T20:46:48.122Z,99695.50
2023-03-12T20:49:37.653Z,99701.88
2023-03-12T20:52:27.339Z,99707.72
2023-03-12T20:55:16.296Z,99706.75
2023-03-12T20:58:07.923Z,99703.34
2023-03-12T21:00:59.820Z,99701.13
2023-03-12T21:03:49.951Z,99701.16
2023-03-12T21:06:38.738Z,99704.88
2023-03-12T21:09:27.489Z,99704.88
2023-03-12T21:12:16.537Z,99705.91
2023-03-12T21:15:07.353Z,99704.81
2023-03-12T21:17:56.465Z,99699.47
2023-03-12T21:20:46.849Z,99710.16
2023-03-12T21:23:36.526Z,99697.41
2023-03-12T21:26:25.742Z,99705.91
2023-03-12T21:29:15.190Z,99696.22
2023-03-12T21:32:03.855Z,99691.78
2023-03-12T21:34:53.231Z,99693.66
2023-03-12T21:37:45.925Z,99683.22
2023-03-12T21:40:34.805Z,99680.75
2023-03-12T21:43:27.733Z,99678.66
2023-03-12T21:46:20.061Z,99676.59
2023-03-12T21:49:09.406Z,99682.28
2023-03-12T21:51:58.645Z,99671.59
2023-03-12T21:54:50.036Z,99668.34
2023-03-12T21:57:38.816Z,99647.03
2023-03-12T22:00:30.777Z,99652.16
2023-03-12T22:03:19.424Z,99662.66
2023-03-12T22:06:08.658Z,99655.47
2023-03-12T22:08:58.438Z,99660.56
2023-03-12T22:11:49.188Z,99658.16
2023-03-12T22:14:37.888Z,99665.16
2023-03-12T22:17:26.602Z,99659.38
2023-03-12T22:20:15.226Z,99648.72
2023-03-12T22:23:03.949Z,99658.19
2023-03-12T22:25:52.754Z,99652.44
2023-03-12T22:28:43.055Z,99639.66
2023-03-12T22:31:32.043Z,99641.34
2023-03-12T22:34:20.743Z,99639.28
2023-03-12T22:37:09.385Z,99647.13
2023-03-12T22:40:01.561Z,99638.34
2023-03-12T22:42:56.157Z,99634.38
2023-03-12T22:45:46.223Z,99636.03
2023-03-12T22:48:35.381Z,99628.25
2023-03-12T22:51:24.104Z,99629.50
2023-03-12T22:54:12.736Z,99617.19
2023-03-12T22:57:02.788Z,99621.25
2023-03-12T22:59:51.424Z,99618.75
2023-03-12T23:02:41.548Z,99627.41
2023-03-12T23:05:30.188Z,99624.91
2023-03-12T23:08:18.981Z,99616.75
2023-03-12T23:11:08.893Z,99631.13
2023-03-12T23:13:57.606Z,99626.97
2023-03-12T23:16:46.331Z,99627.84
2023-03-12T23:19:36.503Z,99624.16
2023-03-12T23:22:25.152Z,99631.06
2023-03-12T23:25:13.782Z,99628.69
2023-03-12T23:28:02.449Z,99628.28
2023-03-12T23:30:57.670Z,99624.19
2023-03-12T23:33:46.708Z,99619.63
2023-03-12T23:36:37.092Z,99625.44
2023-03-12T23:39:25.772Z,99624.59
2023-03-12T23:42:14.456Z,99618.81
2023-03-12T23:45:03.135Z,99618.81
2023-03-12T23:47:51.786Z,99613.09
2023-03-12T23:50:41.182Z,99614.78
2023-03-12T23:53:31.426Z,99614.38
2023-03-12T23:56:21.544Z,99608.69
2023-03-12T23:59:11.477Z,99606.50
